createdAt,value
2023-05-14T00:00:48.111Z,69.88
2023-05-14T00:03:28.756Z,69.80
2023-05-14T00:05:56.136Z,70.16
2023-05-14T00:08:23.847Z,70.30
2023-05-14T00:10:51.167Z,70.55
2023-05-14T00:13:18.754Z,70.79
2023-05-14T00:15:47.104Z,71.40
2023-05-14T00:18:14.784Z,71.65
2023-05-14T00:20:42.104Z,72.07
2023-05-14T00:23:10.159Z,72.20
2023-05-14T00:25:37.566Z,72.27
2023-05-14T00:28:05.388Z,72.32
2023-05-14T00:30:32.806Z,72.74
2023-05-14T00:33:00.574Z,73.27
2023-05-14T00:35:28.052Z,73.75
2023-05-14T00:37:55.771Z,74.60
2023-05-14T00:40:27.806Z,74.98
2023-05-14T00:42:56.870Z,74.25
2023-05-14T00:45:24.393Z,74.81
2023-05-14T00:47:53.639Z,74.49
2023-05-14T00:50:21.982Z,73.94
2023-05-14T00:52:50.087Z,73.64
2023-05-14T00:55:18.603Z,73.16
2023-05-14T00:57:46.424Z,73.01
2023-05-14T01:00:14.303Z,72.88
2023-05-14T01:02:42.540Z,72.67
2023-05-14T01:05:10.195Z,72.32
2023-05-14T01:08:06.902Z,72.74
2023-05-14T01:10:52.576Z,72.04
2023-05-14T01:13:52.449Z,72.19
2023-05-14T01:16:20.350Z,72.10
2023-05-14T01:18:52.725Z,73.01
2023-05-14T01:21:40.966Z,73.24
2023-05-14T01:24:09.099Z,73.79
2023-05-14T01:26:37.545Z,74.19
2023-05-14T01:29:23.213Z,75.07
2023-05-14T01:31:54.326Z,75.20
2023-05-14T01:34:25.339Z,75.61
2023-05-14T01:36:56.020Z,75.71
2023-05-14T01:39:27.365Z,75.94
2023-05-14T01:41:55.842Z,75.42
2023-05-14T01:44:24.646Z,75.37
2023-05-14T01:46:51.895Z,75.33
2023-05-14T01:49:19.835Z,75.15
2023-05-14T01:51:47.143Z,75.24
2023-05-14T01:54:14.733Z,75.24
2023-05-14T01:56:41.969Z,75.40
2023-05-14T01:59:09.234Z,75.13
2023-05-14T02:01:36.854Z,75.04
2023-05-14T02:04:04.561Z,75.20
2023-05-14T02:06:32.307Z,75.07
2023-05-14T02:09:00.390Z,75.01
2023-05-14T02:11:27.958Z,75.09
2023-05-14T02:13:55.210Z,76.33
2023-05-14T02:16:23.048Z,75.43
2023-05-14T02:18:50.535Z,74.97
2023-05-14T02:21:18.274Z,75.21
2023-05-14T02:23:45.557Z,74.91
2023-05-14T02:26:13.175Z,75.14
2023-05-14T02:28:40.548Z,74.87
2023-05-14T02:31:08.214Z,74.73
2023-05-14T02:33:35.747Z,74.63
2023-05-14T02:36:03.616Z,74.59
2023-05-14T02:38:30.927Z,74.76
2023-05-14T02:40:58.547Z,74.44
2023-05-14T02:43:26.004Z,74.59
2023-05-14T02:45:55.615Z,74.61
2023-05-14T02:48:22.970Z,74.53
2023-05-14T02:50:52.225Z,74.67
2023-05-14T02:53:19.544Z,74.73
2023-05-14T02:55:48.543Z,74.75
2023-05-14T02:58:16.100Z,74.85
2023-05-14T03:00:43.789Z,74.89
2023-05-14T03:03:11.827Z,74.79
2023-05-14T03:05:39.872Z,74.98
2023-05-14T03:08:07.168Z,75.34
2023-05-14T03:10:34.761Z,75.24
2023-05-14T03:13:02.086Z,75.32
2023-05-14T03:15:29.683Z,75.22
2023-05-14T03:17:57.118Z,75.30
2023-05-14T03:20:27.163Z,75.35
2023-05-14T03:22:54.774Z,75.42
2023-05-14T03:25:22.512Z,76.26
2023-05-14T03:27:49.865Z,75.68
2023-05-14T03:30:17.654Z,76.82
2023-05-14T03:32:45.668Z,76.32
2023-05-14T03:35:13.570Z,76.03
2023-05-14T03:37:40.985Z,76.03
2023-05-14T03:40:09.309Z,76.31
2023-05-14T03:42:36.815Z,76.39
2023-05-14T03:45:04.906Z,77.01
2023-05-14T03:47:32.298Z,76.62
2023-05-14T03:49:59.934Z,76.08
2023-05-14T03:52:27.282Z,75.72
2023-05-14T03:54:54.902Z,75.55
2023-05-14T03:57:22.181Z,75.62
2023-05-14T03:59:49.902Z,75.90
2023-05-14T04:02:17.152Z,75.77
2023-05-14T04:04:46.307Z,75.86
2023-05-14T04:07:13.635Z,75.73
2023-05-14T04:09:41.231Z,75.98
2023-05-14T04:12:09.028Z,75.55
2023-05-14T04:14:36.574Z,75.30
2023-05-14T04:17:04.075Z,75.40
2023-05-14T04:19:31.626Z,75.44
2023-05-14T04:21:58.908Z,75.23
2023-05-14T04:24:26.428Z,75.13
2023-05-14T04:26:53.713Z,74.84
2023-05-14T04:29:21.244Z,74.93
2023-05-14T04:31:50.116Z,74.55
2023-05-14T04:34:17.792Z,74.54
2023-05-14T04:36:45.028Z,74.93
2023-05-14T04:39:12.653Z,74.59
2023-05-14T04:41:40.017Z,75.35
2023-05-14T04:44:07.776Z,75.39
2023-05-14T04:46:35.326Z,75.17
2023-05-14T04:49:03.021Z,75.05
2023-05-14T04:51:30.383Z,74.18
2023-05-14T04:53:58.172Z,73.33
2023-05-14T04:56:26.023Z,73.32
2023-05-14T04:58:53.645Z,73.43
2023-05-14T05:01:22.484Z,73.52
2023-05-14T05:03:50.115Z,73.48
2023-05-14T05:06:18.478Z,73.78
2023-05-14T05:08:45.977Z,73.61
2023-05-14T05:11:13.261Z,73.13
2023-05-14T05:13:41.692Z,73.50
2023-05-14T05:16:08.988Z,72.46
2023-05-14T05:18:36.600Z,72.22
2023-05-14T05:21:03.985Z,72.97
2023-05-14T05:23:31.574Z,72.46
2023-05-14T05:25:58.852Z,72.27
2023-05-14T05:28:26.372Z,71.29
2023-05-14T05:30:53.849Z,72.48
2023-05-14T05:33:21.607Z,71.64
2023-05-14T05:35:50.223Z,70.68
2023-05-14T05:38:18.455Z,70.01
2023-05-14T05:40:45.863Z,68.95
2023-05-14T05:43:14.029Z,68.76
2023-05-14T05:45:41.649Z,68.70
2023-05-14T05:48:16.671Z,68.32
2023-05-14T05:50:44.955Z,67.39
2023-05-14T05:53:12.672Z,66.73
2023-05-14T05:55:41.547Z,65.75
2023-05-14T05:58:09.196Z,65.09
2023-05-14T06:00:36.631Z,64.50
2023-05-14T06:03:12.051Z,64.75
2023-05-14T06:05:39.778Z,64.58
2023-05-14T06:08:07.713Z,65.57
2023-05-14T06:10:35.126Z,65.07
2023-05-14T06:13:02.671Z,64.75
2023-05-14T06:15:30.053Z,65.19
2023-05-14T06:17:57.922Z,64.11
2023-05-14T06:20:25.670Z,63.61
2023-05-14T06:22:53.580Z,63.32
2023-05-14T06:25:20.892Z,62.29
2023-05-14T06:27:48.452Z,61.87
2023-05-14T06:30:16.156Z,60.67
2023-05-14T06:32:43.814Z,59.83
2023-05-14T06:35:11.137Z,59.79
2023-05-14T06:37:38.755Z,58.84
2023-05-14T06:40:06.976Z,57.62
2023-05-14T06:42:34.669Z,57.66
2023-05-14T06:45:02.057Z,57.50
2023-05-14T06:47:29.698Z,57.46
2023-05-14T06:49:58.885Z,56.29
2023-05-14T06:52:26.572Z,56.06
2023-05-14T06:54:53.821Z,54.94
2023-05-14T06:57:21.459Z,54.21
2023-05-14T06:59:48.796Z,55.04
2023-05-14T07:02:16.433Z,55.10
2023-05-14T07:04:43.975Z,54.80
2023-05-14T07:07:15.467Z,54.25
2023-05-14T07:09:42.962Z,54.54
2023-05-14T07:12:10.623Z,53.90
2023-05-14T07:14:38.085Z,53.85
2023-05-14T07:17:05.717Z,53.01
2023-05-14T07:19:33.320Z,51.65
2023-05-14T07:22:01.377Z,54.34
2023-05-14T07:24:28.663Z,53.13
2023-05-14T07:26:57.481Z,53.66
2023-05-14T07:29:26.478Z,53.06
2023-05-14T07:31:54.132Z,54.23
2023-05-14T07:34:21.689Z,53.79
2023-05-14T07:36:49.371Z,53.15
2023-05-14T07:39:16.649Z,53.06
2023-05-14T07:41:44.323Z,52.74
2023-05-14T07:44:11.537Z,51.70
2023-05-14T07:46:39.244Z,52.78
2023-05-14T07:49:06.601Z,53.76
2023-05-14T07:51:40.392Z,52.39
2023-05-14T07:54:07.816Z,51.47
2023-05-14T07:56:35.414Z,50.44
2023-05-14T07:59:02.661Z,50.14
2023-05-14T08:01:31.338Z,49.56
2023-05-14T08:03:59.197Z,48.76
2023-05-14T08:06:28.372Z,49.19
2023-05-14T08:08:55.838Z,48.06
2023-05-14T08:11:23.566Z,47.61
2023-05-14T08:13:51.126Z,47.64
2023-05-14T08:16:18.803Z,46.83
2023-05-14T08:18:46.241Z,46.21
2023-05-14T08:21:13.786Z,46.29
2023-05-14T08:23:41.127Z,45.70
2023-05-14T08:26:10.170Z,46.02
2023-05-14T08:28:37.432Z,45.74
2023-05-14T08:31:05.652Z,45.54
2023-05-14T08:33:33.180Z,45.12
2023-05-14T08:36:01.907Z,45.63
2023-05-14T08:38:29.189Z,45.67
2023-05-14T08:41:00.834Z,44.28
2023-05-14T08:43:52.552Z,43.68
2023-05-14T08:46:24.676Z,44.20
2023-05-14T08:49:04.442Z,44.09
2023-05-14T08:51:33.359Z,43.33
2023-05-14T08:54:03.909Z,43.33
2023-05-14T08:56:33.658Z,41.79
2023-05-14T08:59:01.106Z,41.74
2023-05-14T09:01:29.941Z,40.83
2023-05-14T09:03:58.801Z,39.86
2023-05-14T09:06:27.469Z,39.91
2023-05-14T09:08:55.618Z,38.99
2023-05-14T09:11:24.793Z,38.07
2023-05-14T09:13:52.082Z,37.56
2023-05-14T09:16:21.877Z,37.67
2023-05-14T09:18:49.383Z,36.85
2023-05-14T09:21:36.823Z,36.07
2023-05-14T09:24:04.647Z,35.44
2023-05-14T09:26:34.643Z,34.82
2023-05-14T09:29:03.407Z,30.79
2023-05-14T09:31:37.563Z,25.00
2023-05-14T09:34:06.452Z,21.42
2023-05-14T09:36:35.386Z,18.39
2023-05-14T09:39:05.986Z,16.79
2023-05-14T09:41:33.981Z,14.76
2023-05-14T09:44:03.036Z,13.36
2023-05-14T09:46:32.060Z,12.06
2023-05-14T09:48:59.503Z,11.51
2023-05-14T09:51:31.643Z,11.36
2023-05-14T09:54:00.852Z,10.40
2023-05-14T09:56:28.599Z,10.68
2023-05-14T09:58:55.892Z,10.23
2023-05-14T10:01:25.113Z,9.83
2023-05-14T10:03:55.003Z,9.78
2023-05-14T10:06:27.731Z,9.84
2023-05-14T10:09:01.478Z,10.10
2023-05-14T10:11:34.473Z,9.54
2023-05-14T10:14:20.884Z,11.04
2023-05-14T10:16:51.598Z,13.52
2023-05-14T10:19:24.341Z,14.10
2023-05-14T10:22:08.358Z,13.34
2023-05-14T10:24:39.132Z,13.22
2023-05-14T10:27:07.421Z,13.80
2023-05-14T10:29:38.261Z,14.63
2023-05-14T10:32:10.230Z,15.37
2023-05-14T10:34:46.634Z,16.20
2023-05-14T10:37:21.019Z,16.87
2023-05-14T10:39:53.833Z,18.51
2023-05-14T10:42:25.946Z,19.13
2023-05-14T10:45:07.624Z,19.95
2023-05-14T10:47:42.684Z,20.53
2023-05-14T10:50:13.244Z,20.97
2023-05-14T10:52:45.878Z,21.89
2023-05-14T10:55:16.644Z,23.08
2023-05-14T10:57:46.999Z,23.47
2023-05-14T11:00:15.742Z,24.17
2023-05-14T11:02:45.319Z,24.07
2023-05-14T11:05:17.561Z,24.15
2023-05-14T11:07:48.512Z,25.30
2023-05-14T11:10:22.132Z,24.75
2023-05-14T11:12:51.727Z,25.41
2023-05-14T11:15:24.013Z,26.54
2023-05-14T11:17:53.686Z,26.05
2023-05-14T11:20:21.998Z,26.32
2023-05-14T11:22:51.902Z,26.51
2023-05-14T11:25:19.399Z,26.48
2023-05-14T11:27:50.138Z,26.83
2023-05-14T11:30:20.639Z,27.81
2023-05-14T11:32:50.555Z,27.16
2023-05-14T11:35:18.779Z,27.54
2023-05-14T11:37:53.051Z,27.44
2023-05-14T11:40:21.883Z,27.72
2023-05-14T11:42:53.630Z,27.58
2023-05-14T11:45:29.924Z,28.05
2023-05-14T11:47:57.816Z,27.27
2023-05-14T11:50:25.539Z,26.95
2023-05-14T11:52:57.598Z,27.01
2023-05-14T11:55:25.234Z,27.49
2023-05-14T11:57:53.005Z,27.10
2023-05-14T12:00:22.197Z,27.57
2023-05-14T12:02:50.431Z,27.43
2023-05-14T12:05:19.121Z,27.49
2023-05-14T12:07:48.038Z,27.40
2023-05-14T12:10:15.713Z,27.45
2023-05-14T12:12:48.309Z,26.82
2023-05-14T12:15:17.426Z,26.92
2023-05-14T12:17:52.073Z,27.21
2023-05-14T12:20:20.209Z,27.63
2023-05-14T12:22:47.992Z,27.90
2023-05-14T12:25:15.439Z,28.46
2023-05-14T12:27:45.942Z,27.89
2023-05-14T12:32:46.040Z,28.11
2023-05-14T12:35:13.509Z,28.24
2023-05-14T12:37:41.961Z,27.08
2023-05-14T12:40:09.857Z,26.45
2023-05-14T12:42:37.786Z,26.67
2023-05-14T12:45:08.159Z,26.41
2023-05-14T12:47:37.210Z,27.55
2023-05-14T12:50:06.231Z,26.95
2023-05-14T12:52:38.619Z,27.36
2023-05-14T12:55:09.457Z,27.77
2023-05-14T12:57:39.612Z,26.53
2023-05-14T13:00:13.024Z,27.06
2023-05-14T13:02:43.696Z,27.14
2023-05-14T13:05:13.116Z,28.09
2023-05-14T13:07:41.250Z,28.08
2023-05-14T13:10:09.432Z,28.34
2023-05-14T13:12:37.097Z,28.71
2023-05-14T13:15:05.473Z,29.88
2023-05-14T13:17:33.257Z,29.93
2023-05-14T13:20:00.836Z,30.05
2023-05-14T13:22:28.629Z,30.24
2023-05-14T13:24:55.976Z,30.15
2023-05-14T13:27:23.907Z,30.57
2023-05-14T13:29:51.268Z,31.23
2023-05-14T13:32:18.919Z,31.41
2023-05-14T13:34:52.109Z,31.85
2023-05-14T13:37:20.025Z,31.79
2023-05-14T13:39:48.717Z,32.42
2023-05-14T13:42:17.250Z,32.13
2023-05-14T13:44:44.637Z,32.07
2023-05-14T13:47:12.676Z,32.39
2023-05-14T13:49:41.551Z,32.92
2023-05-14T13:52:09.150Z,32.79
2023-05-14T13:54:36.496Z,32.84
2023-05-14T13:57:04.453Z,32.76
2023-05-14T13:59:31.843Z,32.49
2023-05-14T14:01:59.683Z,32.68
2023-05-14T14:04:29.187Z,32.77
2023-05-14T14:06:57.189Z,32.73
2023-05-14T14:09:25.038Z,33.64
2023-05-14T14:11:52.848Z,33.69
2023-05-14T14:14:20.393Z,34.08
2023-05-14T14:16:47.947Z,34.40
2023-05-14T14:19:16.421Z,34.35
2023-05-14T14:21:46.513Z,35.09
2023-05-14T14:24:13.865Z,35.17
2023-05-14T14:26:41.521Z,35.70
2023-05-14T14:29:08.911Z,35.73
2023-05-14T14:31:37.126Z,35.60
2023-05-14T14:34:04.582Z,35.42
2023-05-14T14:36:32.320Z,35.52
2023-05-14T14:38:59.580Z,35.75
2023-05-14T14:41:27.497Z,36.21
2023-05-14T14:43:54.795Z,36.38
2023-05-14T14:46:22.592Z,37.17
2023-05-14T14:48:50.059Z,36.91
2023-05-14T14:51:17.736Z,37.76
2023-05-14T14:53:45.238Z,38.05
2023-05-14T14:56:12.828Z,37.82
2023-05-14T14:58:40.095Z,38.16
2023-05-14T15:01:07.775Z,38.11
2023-05-14T15:03:35.454Z,37.94
2023-05-14T15:06:03.141Z,38.12
2023-05-14T15:08:30.402Z,38.97
2023-05-14T15:10:58.267Z,38.30
2023-05-14T15:13:25.862Z,37.79
2023-05-14T15:15:53.557Z,37.96
2023-05-14T15:18:21.236Z,38.51
2023-05-14T15:20:49.029Z,38.31
2023-05-14T15:23:16.439Z,38.86
2023-05-14T15:25:44.540Z,39.04
2023-05-14T15:28:11.789Z,38.76
2023-05-14T15:30:39.626Z,38.88
2023-05-14T15:33:08.883Z,39.03
2023-05-14T15:35:36.778Z,38.39
2023-05-14T15:38:04.298Z,38.54
2023-05-14T15:40:33.193Z,38.95
2023-05-14T15:43:00.592Z,39.13
2023-05-14T15:45:28.415Z,39.13
2023-05-14T15:47:55.899Z,39.17
2023-05-14T15:50:23.750Z,39.91
2023-05-14T15:52:51.393Z,39.35
2023-05-14T15:55:19.762Z,39.14
2023-05-14T15:57:47.189Z,39.14
2023-05-14T16:00:15.262Z,39.27
2023-05-14T16:02:42.699Z,39.40
2023-05-14T16:05:10.488Z,39.45
2023-05-14T16:07:38.428Z,39.47
2023-05-14T16:10:06.931Z,39.59
2023-05-14T16:12:34.480Z,39.92
2023-05-14T16:15:02.254Z,39.46
2023-05-14T16:17:31.611Z,39.57
2023-05-14T16:20:01.333Z,39.70
2023-05-14T16:22:29.568Z,39.58
2023-05-14T16:24:57.154Z,39.66
2023-05-14T16:27:24.775Z,39.65
2023-05-14T16:29:52.798Z,39.86
2023-05-14T16:32:20.295Z,40.34
2023-05-14T16:34:50.079Z,40.63
2023-05-14T16:37:20.044Z,40.42
2023-05-14T16:39:48.043Z,40.81
2023-05-14T16:42:15.400Z,40.19
2023-05-14T16:44:42.973Z,39.98
2023-05-14T16:47:10.521Z,40.10
2023-05-14T16:49:38.268Z,40.27
2023-05-14T16:52:06.394Z,40.83
2023-05-14T16:54:34.124Z,41.10
2023-05-14T16:57:01.701Z,42.23
2023-05-14T16:59:29.324Z,41.18
2023-05-14T17:01:56.657Z,41.57
2023-05-14T17:04:26.698Z,41.97
2023-05-14T17:06:55.770Z,41.81
2023-05-14T17:09:23.677Z,41.95
2023-05-14T17:11:50.952Z,42.30
2023-05-14T17:14:18.624Z,42.95
2023-05-14T17:16:46.200Z,43.02
2023-05-14T17:19:13.848Z,43.27
2023-05-14T17:21:41.440Z,43.54
2023-05-14T17:24:08.913Z,44.04
2023-05-14T17:26:37.846Z,44.28
2023-05-14T17:29:05.179Z,44.17
2023-05-14T17:31:33.007Z,44.63
2023-05-14T17:34:00.850Z,44.97
2023-05-14T17:36:28.829Z,45.38
2023-05-14T17:38:56.208Z,45.71
2023-05-14T17:41:23.840Z,46.00
2023-05-14T17:43:52.622Z,46.49
2023-05-14T17:46:21.354Z,46.84
2023-05-14T17:48:48.745Z,48.36
2023-05-14T17:51:16.852Z,47.91
2023-05-14T17:53:45.137Z,47.65
2023-05-14T17:56:12.952Z,49.42
2023-05-14T17:58:40.388Z,51.54
2023-05-14T18:01:08.019Z,51.44
2023-05-14T18:03:35.595Z,53.10
2023-05-14T18:06:03.315Z,54.25
2023-05-14T18:08:30.676Z,58.03
2023-05-14T18:11:00.828Z,59.79
2023-05-14T18:13:28.313Z,61.30
2023-05-14T18:15:56.693Z,61.41
2023-05-14T18:18:24.210Z,62.06
2023-05-14T18:20:52.711Z,64.03
2023-05-14T18:23:20.109Z,65.66
2023-05-14T18:25:48.527Z,65.53
2023-05-14T18:28:16.039Z,64.17
2023-05-14T18:30:43.762Z,63.50
2023-05-14T18:33:11.325Z,63.06
2023-05-14T18:35:39.180Z,62.63
2023-05-14T18:38:08.102Z,63.31
2023-05-14T18:40:35.709Z,65.41
2023-05-14T18:43:03.144Z,65.66
2023-05-14T18:45:30.835Z,66.25
2023-05-14T18:47:58.240Z,67.78
2023-05-14T18:50:25.981Z,68.64
2023-05-14T18:52:53.260Z,68.50
2023-05-14T18:55:20.967Z,68.35
2023-05-14T18:57:48.529Z,69.07
2023-05-14T19:00:16.611Z,68.75
2023-05-14T19:02:44.192Z,68.92
2023-05-14T19:05:12.013Z,69.97
2023-05-14T19:07:40.875Z,69.75
2023-05-14T19:10:10.476Z,70.05
2023-05-14T19:12:37.993Z,69.52
2023-05-14T19:15:06.646Z,69.28
2023-05-14T19:17:34.244Z,69.89
2023-05-14T19:20:01.947Z,70.97
2023-05-14T19:22:29.405Z,70.85
2023-05-14T19:24:57.064Z,71.14
2023-05-14T19:27:24.581Z,74.02
2023-05-14T19:29:52.417Z,74.54
2023-05-14T19:32:19.746Z,74.96
2023-05-14T19:34:48.415Z,75.13
2023-05-14T19:37:16.739Z,76.17
2023-05-14T19:39:44.468Z,75.62
2023-05-14T19:42:11.777Z,75.14
2023-05-14T19:44:39.438Z,75.63
2023-05-14T19:47:07.777Z,75.30
2023-05-14T19:49:35.481Z,76.33
2023-05-14T19:52:02.913Z,75.97
2023-05-14T19:54:30.619Z,76.07
2023-05-14T19:56:57.980Z,76.81
2023-05-14T19:59:25.624Z,76.72
2023-05-14T20:01:54.909Z,77.88
2023-05-14T20:04:22.681Z,78.44
2023-05-14T20:06:50.127Z,78.71
2023-05-14T20:09:17.919Z,78.54
2023-05-14T20:11:45.188Z,78.01
2023-05-14T20:14:14.207Z,77.96
2023-05-14T20:16:41.974Z,78.26
2023-05-14T20:19:09.719Z,78.06
2023-05-14T20:21:37.059Z,78.65
2023-05-14T20:24:06.103Z,77.93
2023-05-14T20:26:33.524Z,78.05
2023-05-14T20:29:01.220Z,77.62
2023-05-14T20:31:29.047Z,78.39
2023-05-14T20:33:57.057Z,79.14
2023-05-14T20:36:24.559Z,80.62
2023-05-14T20:38:54.603Z,81.31
2023-05-14T20:41:22.552Z,81.94
2023-05-14T20:43:50.175Z,81.90
2023-05-14T20:46:17.738Z,83.14
2023-05-14T20:48:48.412Z,83.02
2023-05-14T20:51:17.249Z,83.12
2023-05-14T20:53:44.880Z,83.61
2023-05-14T20:56:12.636Z,83.65
2023-05-14T20:58:40.406Z,83.93
2023-05-14T21:01:09.633Z,84.51
2023-05-14T21:03:37.435Z,84.73
2023-05-14T21:06:05.276Z,84.87
2023-05-14T21:08:35.081Z,84.92
2023-05-14T21:11:03.095Z,85.55
2023-05-14T21:13:30.775Z,85.90
2023-05-14T21:16:00.354Z,85.94
2023-05-14T21:18:30.918Z,86.38
2023-05-14T21:20:58.740Z,86.44
2023-05-14T21:23:26.642Z,87.00
2023-05-14T21:25:55.061Z,87.28
2023-05-14T21:28:22.860Z,87.52
2023-05-14T21:30:51.463Z,87.73
2023-05-14T21:33:19.614Z,87.95
2023-05-14T21:35:46.972Z,88.58
2023-05-14T21:38:15.036Z,89.01
2023-05-14T21:40:42.373Z,89.05
2023-05-14T21:43:09.927Z,89.34
2023-05-14T21:45:37.423Z,89.60
2023-05-14T21:48:05.597Z,89.83
2023-05-14T21:50:33.214Z,90.30
2023-05-14T21:53:00.962Z,90.18
2023-05-14T21:55:28.911Z,90.56
2023-05-14T21:57:56.843Z,90.84
2023-05-14T22:00:24.229Z,91.50
2023-05-14T22:02:55.597Z,91.80
2023-05-14T22:05:23.330Z,92.08
2023-05-14T22:07:52.196Z,92.56
2023-05-14T22:10:19.667Z,92.77
2023-05-14T22:12:47.369Z,93.00
2023-05-14T22:15:15.193Z,92.97
2023-05-14T22:17:42.853Z,93.25
2023-05-14T22:20:11.643Z,93.17
2023-05-14T22:22:40.004Z,93.19
2023-05-14T22:25:08.687Z,93.52
2023-05-14T22:27:36.285Z,93.64
2023-05-14T22:30:03.832Z,93.70
2023-05-14T22:32:31.451Z,94.14
2023-05-14T22:34:58.826Z,93.90
2023-05-14T22:37:26.452Z,93.33
2023-05-14T22:39:53.822Z,93.50
2023-05-14T22:42:21.364Z,93.26
2023-05-14T22:44:48.782Z,92.64
2023-05-14T22:47:16.512Z,91.72
2023-05-14T22:49:43.928Z,91.37
2023-05-14T22:52:11.622Z,91.35
2023-05-14T22:54:38.973Z,91.30
2023-05-14T22:57:06.812Z,91.93
2023-05-14T22:59:34.297Z,92.40
2023-05-14T23:02:02.311Z,92.17
2023-05-14T23:04:29.814Z,92.16
2023-05-14T23:06:58.655Z,92.25
2023-05-14T23:09:25.963Z,92.55
2023-05-14T23:11:53.710Z,92.81
2023-05-14T23:14:21.187Z,92.96
2023-05-14T23:16:48.713Z,93.20
2023-05-14T23:19:16.273Z,93.38
2023-05-14T23:21:44.071Z,93.81
2023-05-14T23:24:11.317Z,93.82
2023-05-14T23:26:39.370Z,93.88
2023-05-14T23:29:07.068Z,94.20
2023-05-14T23:31:35.459Z,94.21
2023-05-14T23:34:03.383Z,93.68
2023-05-14T23:36:32.703Z,94.07
2023-05-14T23:39:00.380Z,94.11
2023-05-14T23:41:27.961Z,93.35
2023-05-14T23:43:58.142Z,93.49
2023-05-14T23:46:25.863Z,93.64
2023-05-14T23:48:57.097Z,93.42
2023-05-14T23:51:25.167Z,93.53
2023-05-14T23:53:56.490Z,93.69
2023-05-14T23:56:25.902Z,93.66
2023-05-14T23:58:53.658Z,93.76
